sensor_id;sensor_type;location;lat;lon;timestamp;temperature;humidity
10384;DHT22;5238;43.508;4.980;2023-02-28T00:00:55;7.10;91.30
10384;DHT22;5238;43.508;4.980;2023-02-28T00:03:22;7.10;91.30
10384;DHT22;5238;43.508;4.980;2023-02-28T00:05:50;7.10;91.30
10384;DHT22;5238;43.508;4.980;2023-02-28T00:08:19;7.00;91.30
10384;DHT22;5238;43.508;4.980;2023-02-28T00:10:49;7.00;91.30
10384;DHT22;5238;43.508;4.980;2023-02-28T00:13:16;7.00;91.30
10384;DHT22;5238;43.508;4.980;2023-02-28T00:15:43;7.00;91.30
10384;DHT22;5238;43.508;4.980;2023-02-28T00:18:10;7.00;91.30
10384;DHT22;5238;43.508;4.980;2023-02-28T00:20:39;6.90;91.30
10384;DHT22;5238;43.508;4.980;2023-02-28T00:23:08;7.00;91.30
10384;DHT22;5238;43.508;4.980;2023-02-28T00:25:35;7.00;91.30
10384;DHT22;5238;43.508;4.980;2023-02-28T00:28:02;6.90;91.30
10384;DHT22;5238;43.508;4.980;2023-02-28T00:30:29;6.90;91.30
10384;DHT22;5238;43.508;4.980;2023-02-28T00:32:56;6.90;91.30
10384;DHT22;5238;43.508;4.980;2023-02-28T00:35:26;6.90;91.30
10384;DHT22;5238;43.508;4.980;2023-02-28T00:37:55;6.80;91.30
10384;DHT22;5238;43.508;4.980;2023-02-28T00:40:25;6.80;91.30
10384;DHT22;5238;43.508;4.980;2023-02-28T00:42:52;6.80;91.30
10384;DHT22;5238;43.508;4.980;2023-02-28T00:45:19;6.80;91.30
10384;DHT22;5238;43.508;4.980;2023-02-28T00:47:46;6.80;91.30
10384;DHT22;5238;43.508;4.980;2023-02-28T00:50:16;6.80;91.30
10384;DHT22;5238;43.508;4.980;2023-02-28T00:52:43;6.70;91.30
10384;DHT22;5238;43.508;4.980;2023-02-28T00:55:10;6.70;91.30
10384;DHT22;5238;43.508;4.980;2023-02-28T00:57:38;6.70;91.30
10384;DHT22;5238;43.508;4.980;2023-02-28T01:00:07;6.70;91.30
10384;DHT22;5238;43.508;4.980;2023-02-28T01:02:34;6.70;91.30
10384;DHT22;5238;43.508;4.980;2023-02-28T01:05:04;6.70;91.30
10384;DHT22;5238;43.508;4.980;2023-02-28T01:07:32;6.70;91.30
10384;DHT22;5238;43.508;4.980;2023-02-28T01:10:02;6.60;91.30
10384;DHT22;5238;43.508;4.980;2023-02-28T01:12:29;6.60;91.30
10384;DHT22;5238;43.508;4.980;2023-02-28T01:14:57;6.60;91.30
10384;DHT22;5238;43.508;4.980;2023-02-28T01:17:24;6.60;91.30
10384;DHT22;5238;43.508;4.980;2023-02-28T01:19:53;6.60;91.30
10384;DHT22;5238;43.508;4.980;2023-02-28T01:22:20;6.60;91.30
10384;DHT22;5238;43.508;4.980;2023-02-28T01:24:47;6.50;91.30
10384;DHT22;5238;43.508;4.980;2023-02-28T01:27:14;6.50;91.30
10384;DHT22;5238;43.508;4.980;2023-02-28T01:29:44;6.50;91.30
10384;DHT22;5238;43.508;4.980;2023-02-28T01:32:14;6.50;91.30
10384;DHT22;5238;43.508;4.980;2023-02-28T01:34:41;6.50;91.30
10384;DHT22;5238;43.508;4.980;2023-02-28T01:37:09;6.50;91.30
10384;DHT22;5238;43.508;4.980;2023-02-28T01:39:36;6.50;91.30
10384;DHT22;5238;43.508;4.980;2023-02-28T01:42:03;6.40;91.30
10384;DHT22;5238;43.508;4.980;2023-02-28T01:44:58;6.40;91.30
10384;DHT22;5238;43.508;4.980;2023-02-28T01:47:29;6.40;91.30
10384;DHT22;5238;43.508;4.980;2023-02-28T01:49:58;6.40;91.30
10384;DHT22;5238;43.508;4.980;2023-02-28T01:52:25;6.40;91.30
10384;DHT22;5238;43.508;4.980;2023-02-28T01:54:55;6.40;91.30
10384;DHT22;5238;43.508;4.980;2023-02-28T01:57:26;6.40;91.30
10384;DHT22;5238;43.508;4.980;2023-02-28T01:59:57;6.40;91.30
10384;DHT22;5238;43.508;4.980;2023-02-28T02:02:27;6.40;91.30
10384;DHT22;5238;43.508;4.980;2023-02-28T02:04:58;6.40;91.30
10384;DHT22;5238;43.508;4.980;2023-02-28T02:07:29;6.40;91.30
10384;DHT22;5238;43.508;4.980;2023-02-28T02:10:03;6.40;91.30
10384;DHT22;5238;43.508;4.980;2023-02-28T02:12:48;6.40;91.30
10384;DHT22;5238;43.508;4.980;2023-02-28T02:15:22;6.40;91.30
10384;DHT22;5238;43.508;4.980;2023-02-28T02:17:53;6.40;91.30
10384;DHT22;5238;43.508;4.980;2023-02-28T02:20:58;6.40;91.30
10384;DHT22;5238;43.508;4.980;2023-02-28T02:24:11;6.40;91.30
10384;DHT22;5238;43.508;4.980;2023-02-28T02:27:17;6.40;91.30
10384;DHT22;5238;43.508;4.980;2023-02-28T02:36:08;6.30;91.30
10384;DHT22;5238;43.508;4.980;2023-02-28T02:38:45;6.30;91.30
10384;DHT22;5238;43.508;4.980;2023-02-28T02:41:18;6.30;91.30
10384;DHT22;5238;43.508;4.980;2023-02-28T02:43:49;6.20;91.30
10384;DHT22;5238;43.508;4.980;2023-02-28T02:46:20;6.20;91.30
10384;DHT22;5238;43.508;4.980;2023-02-28T02:48:51;6.20;91.30
10384;DHT22;5238;43.508;4.980;2023-02-28T02:51:22;6.20;91.30
10384;DHT22;5238;43.508;4.980;2023-02-28T02:53:51;6.20;91.30
10384;DHT22;5238;43.508;4.980;2023-02-28T02:56:24;6.20;91.30
10384;DHT22;5238;43.508;4.980;2023-02-28T02:58:58;6.20;91.30
10384;DHT22;5238;43.508;4.980;2023-02-28T03:01:29;6.10;91.30
10384;DHT22;5238;43.508;4.980;2023-02-28T03:04:06;6.10;91.30
10384;DHT22;5238;43.508;4.980;2023-02-28T03:06:37;6.10;91.30
10384;DHT22;5238;43.508;4.980;2023-02-28T03:09:05;6.10;91.30
10384;DHT22;5238;43.508;4.980;2023-02-28T03:11:33;6.10;91.30
10384;DHT22;5238;43.508;4.980;2023-02-28T03:14:13;6.10;91.30
10384;DHT22;5238;43.508;4.980;2023-02-28T03:16:54;6.00;91.30
10384;DHT22;5238;43.508;4.980;2023-02-28T03:19:43;6.00;91.30
10384;DHT22;5238;43.508;4.980;2023-02-28T03:22:34;5.90;91.30
10384;DHT22;5238;43.508;4.980;2023-02-28T03:25:07;5.90;91.30
10384;DHT22;5238;43.508;4.980;2023-02-28T03:27:41;5.90;91.30
10384;DHT22;5238;43.508;4.980;2023-02-28T03:30:13;5.90;91.30
10384;DHT22;5238;43.508;4.980;2023-02-28T03:32:47;5.80;91.30
10384;DHT22;5238;43.508;4.980;2023-02-28T03:35:21;5.80;91.30
10384;DHT22;5238;43.508;4.980;2023-02-28T03:37:58;5.80;91.30
10384;DHT22;5238;43.508;4.980;2023-02-28T03:40:30;5.70;91.30
10384;DHT22;5238;43.508;4.980;2023-02-28T03:43:02;5.70;91.30
10384;DHT22;5238;43.508;4.980;2023-02-28T03:45:35;5.60;91.30
10384;DHT22;5238;43.508;4.980;2023-02-28T03:48:15;5.60;91.30
10384;DHT22;5238;43.508;4.980;2023-02-28T03:50:45;5.60;91.30
10384;DHT22;5238;43.508;4.980;2023-02-28T03:53:18;5.60;91.30
10384;DHT22;5238;43.508;4.980;2023-02-28T03:55:49;5.60;91.30
10384;DHT22;5238;43.508;4.980;2023-02-28T03:58:24;5.60;91.30
10384;DHT22;5238;43.508;4.980;2023-02-28T04:00:57;5.50;91.30
10384;DHT22;5238;43.508;4.980;2023-02-28T04:03:25;5.50;91.30
10384;DHT22;5238;43.508;4.980;2023-02-28T04:05:57;5.50;91.30
10384;DHT22;5238;43.508;4.980;2023-02-28T04:08:27;5.50;91.30
10384;DHT22;5238;43.508;4.980;2023-02-28T04:11:00;5.50;91.30
10384;DHT22;5238;43.508;4.980;2023-02-28T04:13:28;5.50;91.30
10384;DHT22;5238;43.508;4.980;2023-02-28T04:15:57;5.50;91.30
10384;DHT22;5238;43.508;4.980;2023-02-28T04:18:23;5.50;91.30
10384;DHT22;5238;43.508;4.980;2023-02-28T04:20:51;5.50;91.30
10384;DHT22;5238;43.508;4.980;2023-02-28T04:23:18;5.50;91.30
10384;DHT22;5238;43.508;4.980;2023-02-28T04:25:48;5.50;91.30
10384;DHT22;5238;43.508;4.980;2023-02-28T04:28:16;5.50;91.30
10384;DHT22;5238;43.508;4.980;2023-02-28T04:30:46;5.50;91.30
10384;DHT22;5238;43.508;4.980;2023-02-28T04:33:13;5.50;91.30
10384;DHT22;5238;43.508;4.980;2023-02-28T04:35:40;5.50;91.30
10384;DHT22;5238;43.508;4.980;2023-02-28T04:38:07;5.40;91.30
10384;DHT22;5238;43.508;4.980;2023-02-28T04:40:43;5.40;91.30
10384;DHT22;5238;43.508;4.980;2023-02-28T04:43:11;5.40;91.30
10384;DHT22;5238;43.508;4.980;2023-02-28T04:45:38;5.40;91.30
10384;DHT22;5238;43.508;4.980;2023-02-28T04:48:07;5.40;91.30
10384;DHT22;5238;43.508;4.980;2023-02-28T04:50:36;5.40;91.30
10384;DHT22;5238;43.508;4.980;2023-02-28T04:53:06;5.30;91.30
10384;DHT22;5238;43.508;4.980;2023-02-28T04:55:35;5.30;91.30
10384;DHT22;5238;43.508;4.980;2023-02-28T04:58:05;5.30;91.30
10384;DHT22;5238;43.508;4.980;2023-02-28T05:00:34;5.30;91.30
10384;DHT22;5238;43.508;4.980;2023-02-28T05:03:01;5.30;91.30
10384;DHT22;5238;43.508;4.980;2023-02-28T05:05:28;5.20;91.30
10384;DHT22;5238;43.508;4.980;2023-02-28T05:07:57;5.20;91.30
10384;DHT22;5238;43.508;4.980;2023-02-28T05:10:25;5.20;91.30
10384;DHT22;5238;43.508;4.980;2023-02-28T05:12:52;5.30;91.30
10384;DHT22;5238;43.508;4.980;2023-02-28T05:15:20;5.30;91.30
10384;DHT22;5238;43.508;4.980;2023-02-28T05:17:49;5.30;91.30
10384;DHT22;5238;43.508;4.980;2023-02-28T05:20:24;5.30;91.30
10384;DHT22;5238;43.508;4.980;2023-02-28T05:22:51;5.30;91.30
10384;DHT22;5238;43.508;4.980;2023-02-28T05:25:20;5.30;91.30
10384;DHT22;5238;43.508;4.980;2023-02-28T05:27:48;5.30;91.30
10384;DHT22;5238;43.508;4.980;2023-02-28T05:30:16;5.20;91.30
10384;DHT22;5238;43.508;4.980;2023-02-28T05:32:43;5.30;91.30
10384;DHT22;5238;43.508;4.980;2023-02-28T05:35:14;5.30;91.30
10384;DHT22;5238;43.508;4.980;2023-02-28T05:37:42;5.30;91.30
10384;DHT22;5238;43.508;4.980;2023-02-28T05:40:11;5.30;91.30
10384;DHT22;5238;43.508;4.980;2023-02-28T05:42:42;5.30;91.30
10384;DHT22;5238;43.508;4.980;2023-02-28T05:45:12;5.20;91.30
10384;DHT22;5238;43.508;4.980;2023-02-28T05:47:42;5.20;91.30
10384;DHT22;5238;43.508;4.980;2023-02-28T05:50:15;5.20;91.30
10384;DHT22;5238;43.508;4.980;2023-02-28T05:52:49;5.20;91.30
10384;DHT22;5238;43.508;4.980;2023-02-28T05:55:20;5.10;91.30
10384;DHT22;5238;43.508;4.980;2023-02-28T05:57:47;5.10;91.30
10384;DHT22;5238;43.508;4.980;2023-02-28T06:00:14;5.10;91.30
10384;DHT22;5238;43.508;4.980;2023-02-28T06:02:43;5.10;91.30
10384;DHT22;5238;43.508;4.980;2023-02-28T06:05:15;5.10;91.30
10384;DHT22;5238;43.508;4.980;2023-02-28T06:07:45;5.10;91.30
10384;DHT22;5238;43.508;4.980;2023-02-28T06:10:12;5.10;91.30
10384;DHT22;5238;43.508;4.980;2023-02-28T06:12:39;5.00;91.30
10384;DHT22;5238;43.508;4.980;2023-02-28T06:15:13;5.00;91.30
10384;DHT22;5238;43.508;4.980;2023-02-28T06:17:46;5.00;91.30
10384;DHT22;5238;43.508;4.980;2023-02-28T06:20:14;5.00;91.30
10384;DHT22;5238;43.508;4.980;2023-02-28T06:22:42;5.00;91.30
10384;DHT22;5238;43.508;4.980;2023-02-28T06:25:10;5.00;91.30
10384;DHT22;5238;43.508;4.980;2023-02-28T06:27:37;5.00;91.30
10384;DHT22;5238;43.508;4.980;2023-02-28T06:30:05;5.00;91.30
10384;DHT22;5238;43.508;4.980;2023-02-28T06:32:34;5.00;91.30
10384;DHT22;5238;43.508;4.980;2023-02-28T06:35:02;5.00;91.30
10384;DHT22;5238;43.508;4.980;2023-02-28T06:37:32;5.00;91.30
10384;DHT22;5238;43.508;4.980;2023-02-28T06:40:00;5.10;91.30
10384;DHT22;5238;43.508;4.980;2023-02-28T06:42:27;5.10;91.30
10384;DHT22;5238;43.508;4.980;2023-02-28T06:44:58;5.10;91.30
10384;DHT22;5238;43.508;4.980;2023-02-28T06:47:25;5.10;91.30
10384;DHT22;5238;43.508;4.980;2023-02-28T06:49:52;5.10;91.30
10384;DHT22;5238;43.508;4.980;2023-02-28T06:52:20;5.10;91.30
10384;DHT22;5238;43.508;4.980;2023-02-28T06:54:49;5.10;91.30
10384;DHT22;5238;43.508;4.980;2023-02-28T06:57:25;5.10;91.30
10384;DHT22;5238;43.508;4.980;2023-02-28T06:59:54;5.10;91.30
10384;DHT22;5238;43.508;4.980;2023-02-28T07:02:21;5.10;91.30
10384;DHT22;5238;43.508;4.980;2023-02-28T07:04:48;5.10;91.30
10384;DHT22;5238;43.508;4.980;2023-02-28T07:07:17;5.10;91.30
10384;DHT22;5238;43.508;4.980;2023-02-28T07:09:43;5.10;91.30
10384;DHT22;5238;43.508;4.980;2023-02-28T07:12:12;5.10;91.30
10384;DHT22;5238;43.508;4.980;2023-02-28T07:14:39;5.20;91.30
10384;DHT22;5238;43.508;4.980;2023-02-28T07:17:07;5.20;91.30
10384;DHT22;5238;43.508;4.980;2023-02-28T07:19:34;5.20;91.30
10384;DHT22;5238;43.508;4.980;2023-02-28T07:22:04;5.20;91.30
10384;DHT22;5238;43.508;4.980;2023-02-28T07:24:31;5.30;91.30
10384;DHT22;5238;43.508;4.980;2023-02-28T07:26:58;5.30;91.30
10384;DHT22;5238;43.508;4.980;2023-02-28T07:29:28;5.40;91.30
10384;DHT22;5238;43.508;4.980;2023-02-28T07:31:55;5.40;91.30
10384;DHT22;5238;43.508;4.980;2023-02-28T07:34:23;5.40;91.30
10384;DHT22;5238;43.508;4.980;2023-02-28T07:36:53;5.50;91.30
10384;DHT22;5238;43.508;4.980;2023-02-28T07:39:22;5.50;91.30
10384;DHT22;5238;43.508;4.980;2023-02-28T07:41:49;5.50;91.30
10384;DHT22;5238;43.508;4.980;2023-02-28T07:44:16;5.50;91.30
10384;DHT22;5238;43.508;4.980;2023-02-28T07:46:49;5.50;91.30
10384;DHT22;5238;43.508;4.980;2023-02-28T07:49:16;5.50;91.30
10384;DHT22;5238;43.508;4.980;2023-02-28T07:51:51;5.50;91.30
10384;DHT22;5238;43.508;4.980;2023-02-28T07:54:18;5.50;91.30
10384;DHT22;5238;43.508;4.980;2023-02-28T07:56:45;5.50;91.30
10384;DHT22;5238;43.508;4.980;2023-02-28T07:59:12;5.50;91.30
10384;DHT22;5238;43.508;4.980;2023-02-28T08:01:39;5.60;91.30
10384;DHT22;5238;43.508;4.980;2023-02-28T08:04:09;5.60;91.30
10384;DHT22;5238;43.508;4.980;2023-02-28T08:06:39;5.60;91.30
10384;DHT22;5238;43.508;4.980;2023-02-28T08:09:06;5.70;91.30
10384;DHT22;5238;43.508;4.980;2023-02-28T08:11:33;5.70;91.30
10384;DHT22;5238;43.508;4.980;2023-02-28T08:14:00;5.70;91.30
10384;DHT22;5238;43.508;4.980;2023-02-28T08:16:30;5.70;91.30
10384;DHT22;5238;43.508;4.980;2023-02-28T08:18:57;5.80;91.30
10384;DHT22;5238;43.508;4.980;2023-02-28T08:21:26;5.80;91.30
10384;DHT22;5238;43.508;4.980;2023-02-28T08:23:54;5.90;91.30
10384;DHT22;5238;43.508;4.980;2023-02-28T08:26:22;5.90;91.30
10384;DHT22;5238;43.508;4.980;2023-02-28T08:28:51;6.00;91.30
10384;DHT22;5238;43.508;4.980;2023-02-28T08:31:18;6.00;91.30
10384;DHT22;5238;43.508;4.980;2023-02-28T08:33:50;6.10;91.30
10384;DHT22;5238;43.508;4.980;2023-02-28T08:36:19;6.10;91.30
10384;DHT22;5238;43.508;4.980;2023-02-28T08:38:52;6.20;91.30
10384;DHT22;5238;43.508;4.980;2023-02-28T08:41:21;6.30;91.30
10384;DHT22;5238;43.508;4.980;2023-02-28T08:43:50;6.40;91.30
10384;DHT22;5238;43.508;4.980;2023-02-28T08:46:17;6.40;91.30
10384;DHT22;5238;43.508;4.980;2023-02-28T08:48:44;6.50;91.30
10384;DHT22;5238;43.508;4.980;2023-02-28T08:51:13;6.60;91.30
10384;DHT22;5238;43.508;4.980;2023-02-28T08:53:41;6.60;91.30
10384;DHT22;5238;43.508;4.980;2023-02-28T08:56:11;6.70;91.30
10384;DHT22;5238;43.508;4.980;2023-02-28T08:58:39;6.80;91.30
10384;DHT22;5238;43.508;4.980;2023-02-28T09:01:11;6.80;91.30
10384;DHT22;5238;43.508;4.980;2023-02-28T09:03:39;6.90;91.30
10384;DHT22;5238;43.508;4.980;2023-02-28T09:06:07;7.00;91.30
10384;DHT22;5238;43.508;4.980;2023-02-28T09:08:35;7.10;91.30
10384;DHT22;5238;43.508;4.980;2023-02-28T09:11:05;7.10;91.30
10384;DHT22;5238;43.508;4.980;2023-02-28T09:13:42;7.20;91.30
10384;DHT22;5238;43.508;4.980;2023-02-28T09:16:12;7.20;91.30
10384;DHT22;5238;43.508;4.980;2023-02-28T09:18:40;7.30;91.30
10384;DHT22;5238;43.508;4.980;2023-02-28T09:21:08;7.30;91.30
10384;DHT22;5238;43.508;4.980;2023-02-28T09:23:37;7.40;91.30
10384;DHT22;5238;43.508;4.980;2023-02-28T09:26:07;7.50;91.30
10384;DHT22;5238;43.508;4.980;2023-02-28T09:28:34;7.50;91.30
10384;DHT22;5238;43.508;4.980;2023-02-28T09:31:03;7.60;91.30
10384;DHT22;5238;43.508;4.980;2023-02-28T09:33:31;7.80;91.30
10384;DHT22;5238;43.508;4.980;2023-02-28T09:36:01;7.90;91.30
10384;DHT22;5238;43.508;4.980;2023-02-28T09:38:29;8.00;91.30
10384;DHT22;5238;43.508;4.980;2023-02-28T09:40:58;8.00;91.30
10384;DHT22;5238;43.508;4.980;2023-02-28T09:43:31;8.10;91.30
10384;DHT22;5238;43.508;4.980;2023-02-28T09:46:08;8.10;91.30
10384;DHT22;5238;43.508;4.980;2023-02-28T09:48:42;8.20;91.30
10384;DHT22;5238;43.508;4.980;2023-02-28T09:51:23;8.20;91.30
10384;DHT22;5238;43.508;4.980;2023-02-28T09:53:54;8.10;91.30
10384;DHT22;5238;43.508;4.980;2023-02-28T09:56:26;8.10;91.30
10384;DHT22;5238;43.508;4.980;2023-02-28T09:58:57;8.10;91.30
10384;DHT22;5238;43.508;4.980;2023-02-28T10:01:31;8.10;91.30
10384;DHT22;5238;43.508;4.980;2023-02-28T10:04:05;8.00;91.30
10384;DHT22;5238;43.508;4.980;2023-02-28T10:06:39;8.00;91.30
10384;DHT22;5238;43.508;4.980;2023-02-28T10:09:13;8.00;91.30
10384;DHT22;5238;43.508;4.980;2023-02-28T10:11:42;7.90;91.30
10384;DHT22;5238;43.508;4.980;2023-02-28T10:14:13;7.90;91.30
10384;DHT22;5238;43.508;4.980;2023-02-28T10:16:50;7.90;91.30
10384;DHT22;5238;43.508;4.980;2023-02-28T10:19:25;7.90;91.30
10384;DHT22;5238;43.508;4.980;2023-02-28T10:22:01;7.80;91.30
10384;DHT22;5238;43.508;4.980;2023-02-28T10:24:33;7.80;91.30
10384;DHT22;5238;43.508;4.980;2023-02-28T10:27:12;7.80;91.30
10384;DHT22;5238;43.508;4.980;2023-02-28T10:29:45;7.80;91.30
10384;DHT22;5238;43.508;4.980;2023-02-28T10:32:19;7.80;91.30
10384;DHT22;5238;43.508;4.980;2023-02-28T10:34:51;7.80;91.30
10384;DHT22;5238;43.508;4.980;2023-02-28T10:37:21;7.80;91.30
10384;DHT22;5238;43.508;4.980;2023-02-28T10:39:53;7.80;91.30
10384;DHT22;5238;43.508;4.980;2023-02-28T10:42:23;7.80;91.30
10384;DHT22;5238;43.508;4.980;2023-02-28T10:45:12;7.80;91.30
10384;DHT22;5238;43.508;4.980;2023-02-28T10:47:55;7.90;91.30
10384;DHT22;5238;43.508;4.980;2023-02-28T10:50:42;7.90;91.30
10384;DHT22;5238;43.508;4.980;2023-02-28T10:53:37;7.90;91.30
10384;DHT22;5238;43.508;4.980;2023-02-28T10:56:15;8.00;91.30
10384;DHT22;5238;43.508;4.980;2023-02-28T10:58:54;8.10;91.30
10384;DHT22;5238;43.508;4.980;2023-02-28T11:01:38;8.10;91.30
10384;DHT22;5238;43.508;4.980;2023-02-28T11:04:31;8.20;91.30
10384;DHT22;5238;43.508;4.980;2023-02-28T11:07:01;8.30;91.30
10384;DHT22;5238;43.508;4.980;2023-02-28T11:09:30;8.30;91.30
10384;DHT22;5238;43.508;4.980;2023-02-28T11:12:02;8.30;91.30
10384;DHT22;5238;43.508;4.980;2023-02-28T11:14:35;8.40;91.30
10384;DHT22;5238;43.508;4.980;2023-02-28T11:17:14;8.40;91.30
10384;DHT22;5238;43.508;4.980;2023-02-28T11:19:51;8.40;91.30
10384;DHT22;5238;43.508;4.980;2023-02-28T11:22:21;8.40;91.30
10384;DHT22;5238;43.508;4.980;2023-02-28T11:24:51;8.40;91.30
10384;DHT22;5238;43.508;4.980;2023-02-28T11:27:43;8.40;91.30
10384;DHT22;5238;43.508;4.980;2023-02-28T11:30:32;8.30;91.30
10384;DHT22;5238;43.508;4.980;2023-02-28T11:33:01;8.30;91.30
10384;DHT22;5238;43.508;4.980;2023-02-28T11:35:46;8.30;91.30
10384;DHT22;5238;43.508;4.980;2023-02-28T11:38:15;8.30;91.30
10384;DHT22;5238;43.508;4.980;2023-02-28T11:40:47;8.30;91.30
10384;DHT22;5238;43.508;4.980;2023-02-28T11:43:30;8.20;91.30
10384;DHT22;5238;43.508;4.980;2023-02-28T11:46:11;8.20;91.30
10384;DHT22;5238;43.508;4.980;2023-02-28T11:48:47;8.20;91.30
10384;DHT22;5238;43.508;4.980;2023-02-28T11:51:23;8.10;91.30
10384;DHT22;5238;43.508;4.980;2023-02-28T11:56:52;8.10;91.30
10384;DHT22;5238;43.508;4.980;2023-02-28T11:59:48;8.10;91.30
10384;DHT22;5238;43.508;4.980;2023-02-28T12:02:50;8.10;91.30
10384;DHT22;5238;43.508;4.980;2023-02-28T12:05:29;8.10;91.30
10384;DHT22;5238;43.508;4.980;2023-02-28T12:08:16;8.10;91.30
10384;DHT22;5238;43.508;4.980;2023-02-28T12:10:57;8.10;91.30
10384;DHT22;5238;43.508;4.980;2023-02-28T12:13:33;8.00;91.30
10384;DHT22;5238;43.508;4.980;2023-02-28T12:16:27;8.00;91.30
10384;DHT22;5238;43.508;4.980;2023-02-28T12:19:06;8.10;91.30
10384;DHT22;5238;43.508;4.980;2023-02-28T12:21:56;8.10;91.30
10384;DHT22;5238;43.508;4.980;2023-02-28T12:24:44;8.10;91.30
10384;DHT22;5238;43.508;4.980;2023-02-28T12:27:19;8.10;91.30
10384;DHT22;5238;43.508;4.980;2023-02-28T12:29:50;8.20;91.30
10384;DHT22;5238;43.508;4.980;2023-02-28T12:32:25;8.20;91.30
10384;DHT22;5238;43.508;4.980;2023-02-28T12:34:56;8.20;91.30
10384;DHT22;5238;43.508;4.980;2023-02-28T12:37:29;8.20;91.30
10384;DHT22;5238;43.508;4.980;2023-02-28T12:40:03;8.20;91.30
10384;DHT22;5238;43.508;4.980;2023-02-28T12:42:36;8.30;91.30
10384;DHT22;5238;43.508;4.980;2023-02-28T12:45:12;8.30;91.30
10384;DHT22;5238;43.508;4.980;2023-02-28T12:47:45;8.30;91.30
10384;DHT22;5238;43.508;4.980;2023-02-28T12:50:13;8.40;91.30
10384;DHT22;5238;43.508;4.980;2023-02-28T12:52:48;8.40;91.30
10384;DHT22;5238;43.508;4.980;2023-02-28T12:55:25;8.50;91.30
10384;DHT22;5238;43.508;4.980;2023-02-28T12:58:01;8.50;91.30
10384;DHT22;5238;43.508;4.980;2023-02-28T13:00:35;8.50;91.30
10384;DHT22;5238;43.508;4.980;2023-02-28T13:06:10;8.60;91.30
10384;DHT22;5238;43.508;4.980;2023-02-28T13:08:59;8.60;91.30
10384;DHT22;5238;43.508;4.980;2023-02-28T13:11:31;8.60;91.30
10384;DHT22;5238;43.508;4.980;2023-02-28T13:14:00;8.70;91.30
10384;DHT22;5238;43.508;4.980;2023-02-28T13:16:56;8.70;91.30
10384;DHT22;5238;43.508;4.980;2023-02-28T13:19:25;8.70;91.30
10384;DHT22;5238;43.508;4.980;2023-02-28T13:21:53;8.80;91.30
10384;DHT22;5238;43.508;4.980;2023-02-28T13:24:40;8.80;91.30
10384;DHT22;5238;43.508;4.980;2023-02-28T13:33:25;8.80;91.30
10384;DHT22;5238;43.508;4.980;2023-02-28T13:36:24;8.70;91.30
10384;DHT22;5238;43.508;4.980;2023-02-28T13:38:55;8.70;91.30
10384;DHT22;5238;43.508;4.980;2023-02-28T13:41:46;8.70;91.30
10384;DHT22;5238;43.508;4.980;2023-02-28T13:44:17;8.60;91.30
10384;DHT22;5238;43.508;4.980;2023-02-28T13:47:23;8.60;91.30
10384;DHT22;5238;43.508;4.980;2023-02-28T13:49:52;8.60;91.30
10384;DHT22;5238;43.508;4.980;2023-02-28T13:52:22;8.60;91.30
10384;DHT22;5238;43.508;4.980;2023-02-28T13:55:01;8.60;91.30
10384;DHT22;5238;43.508;4.980;2023-02-28T13:57:42;8.60;91.30
10384;DHT22;5238;43.508;4.980;2023-02-28T14:00:28;8.60;91.30
10384;DHT22;5238;43.508;4.980;2023-02-28T14:03:22;8.60;91.30
10384;DHT22;5238;43.508;4.980;2023-02-28T14:06:25;8.60;91.30
10384;DHT22;5238;43.508;4.980;2023-02-28T14:09:21;8.60;91.30
10384;DHT22;5238;43.508;4.980;2023-02-28T14:15:50;8.70;91.30
10384;DHT22;5238;43.508;4.980;2023-02-28T14:18:29;8.70;91.30
10384;DHT22;5238;43.508;4.980;2023-02-28T14:21:20;8.70;91.30
10384;DHT22;5238;43.508;4.980;2023-02-28T14:24:31;8.70;91.30
10384;DHT22;5238;43.508;4.980;2023-02-28T14:27:29;8.70;91.30
10384;DHT22;5238;43.508;4.980;2023-02-28T14:30:19;8.60;91.30
10384;DHT22;5238;43.508;4.980;2023-02-28T14:33:11;8.70;91.30
10384;DHT22;5238;43.508;4.980;2023-02-28T14:35:56;8.60;91.30
10384;DHT22;5238;43.508;4.980;2023-02-28T14:38:30;8.60;91.30
10384;DHT22;5238;43.508;4.980;2023-02-28T14:41:02;8.70;91.30
10384;DHT22;5238;43.508;4.980;2023-02-28T14:43:29;8.70;91.30
10384;DHT22;5238;43.508;4.980;2023-02-28T14:45:58;8.70;91.30
10384;DHT22;5238;43.508;4.980;2023-02-28T14:48:28;8.70;91.30
10384;DHT22;5238;43.508;4.980;2023-02-28T14:50:57;8.80;91.30
10384;DHT22;5238;43.508;4.980;2023-02-28T14:53:28;8.80;91.30
10384;DHT22;5238;43.508;4.980;2023-02-28T14:55:56;8.80;91.30
10384;DHT22;5238;43.508;4.980;2023-02-28T14:58:28;8.80;91.30
10384;DHT22;5238;43.508;4.980;2023-02-28T15:00:57;8.80;91.30
10384;DHT22;5238;43.508;4.980;2023-02-28T15:03:35;8.80;91.30
10384;DHT22;5238;43.508;4.980;2023-02-28T15:06:05;8.80;91.30
10384;DHT22;5238;43.508;4.980;2023-02-28T15:08:39;8.80;91.30
10384;DHT22;5238;43.508;4.980;2023-02-28T15:11:15;8.70;91.30
10384;DHT22;5238;43.508;4.980;2023-02-28T15:13:46;8.70;91.30
10384;DHT22;5238;43.508;4.980;2023-02-28T15:16:21;8.70;91.30
10384;DHT22;5238;43.508;4.980;2023-02-28T15:18:53;8.70;91.30
10384;DHT22;5238;43.508;4.980;2023-02-28T15:21:28;8.70;91.30
10384;DHT22;5238;43.508;4.980;2023-02-28T15:23:59;8.70;91.30
10384;DHT22;5238;43.508;4.980;2023-02-28T15:26:31;8.70;91.30
10384;DHT22;5238;43.508;4.980;2023-02-28T15:29:01;8.70;91.30
10384;DHT22;5238;43.508;4.980;2023-02-28T15:31:31;8.70;91.30
10384;DHT22;5238;43.508;4.980;2023-02-28T15:34:05;8.70;91.30
10384;DHT22;5238;43.508;4.980;2023-02-28T15:36:34;8.70;91.30
10384;DHT22;5238;43.508;4.980;2023-02-28T15:39:16;8.80;91.30
10384;DHT22;5238;43.508;4.980;2023-02-28T15:41:45;8.80;91.30
10384;DHT22;5238;43.508;4.980;2023-02-28T15:44:36;8.80;91.30
10384;DHT22;5238;43.508;4.980;2023-02-28T15:47:19;8.80;91.30
10384;DHT22;5238;43.508;4.980;2023-02-28T15:49:50;8.80;91.30
10384;DHT22;5238;43.508;4.980;2023-02-28T15:52:27;8.80;91.30
10384;DHT22;5238;43.508;4.980;2023-02-28T15:54:55;8.70;91.30
10384;DHT22;5238;43.508;4.980;2023-02-28T15:57:25;8.70;91.30
10384;DHT22;5238;43.508;4.980;2023-02-28T15:59:55;8.70;91.30
10384;DHT22;5238;43.508;4.980;2023-02-28T16:02:30;8.60;91.30
10384;DHT22;5238;43.508;4.980;2023-02-28T16:08:01;8.60;91.30
10384;DHT22;5238;43.508;4.980;2023-02-28T16:10:29;8.60;91.30
10384;DHT22;5238;43.508;4.980;2023-02-28T16:12:57;8.60;91.30
10384;DHT22;5238;43.508;4.980;2023-02-28T16:15:27;8.50;91.30
10384;DHT22;5238;43.508;4.980;2023-02-28T16:17:56;8.50;91.30
10384;DHT22;5238;43.508;4.980;2023-02-28T16:20:27;8.50;91.30
10384;DHT22;5238;43.508;4.980;2023-02-28T16:22:54;8.50;91.30
10384;DHT22;5238;43.508;4.980;2023-02-28T16:25:25;8.50;91.30
10384;DHT22;5238;43.508;4.980;2023-02-28T16:27:54;8.50;91.30
10384;DHT22;5238;43.508;4.980;2023-02-28T16:30:24;8.50;91.30
10384;DHT22;5238;43.508;4.980;2023-02-28T16:32:53;8.50;91.30
10384;DHT22;5238;43.508;4.980;2023-02-28T16:35:22;8.50;91.30
10384;DHT22;5238;43.508;4.980;2023-02-28T16:37:51;8.50;91.30
10384;DHT22;5238;43.508;4.980;2023-02-28T16:40:21;8.40;91.30
10384;DHT22;5238;43.508;4.980;2023-02-28T16:42:52;8.40;91.30
10384;DHT22;5238;43.508;4.980;2023-02-28T16:45:22;8.40;91.30
10384;DHT22;5238;43.508;4.980;2023-02-28T16:47:49;8.30;91.30
10384;DHT22;5238;43.508;4.980;2023-02-28T16:50:18;8.30;91.30
10384;DHT22;5238;43.508;4.980;2023-02-28T16:52:46;8.30;91.30
10384;DHT22;5238;43.508;4.980;2023-02-28T16:55:16;8.30;91.30
10384;DHT22;5238;43.508;4.980;2023-02-28T16:57:47;8.20;91.30
10384;DHT22;5238;43.508;4.980;2023-02-28T17:00:26;8.20;91.30
10384;DHT22;5238;43.508;4.980;2023-02-28T17:02:55;8.10;91.30